Time;durP1;ratioP1;P1;durP2;ratioP2;P2;SDS_P1;SDS_P2;PMS_P1;PMS_P2;Temp;Humidity;BMP_temperature;BMP_pressure;BME280_temperature;BME280_humidity;BME280_pressure;Samples;Min_cycle;Max_cycle;Signal;HPM_P1;HPM_P2
2022/12/18 00:01:05;;;;;;;49.87;17.40;;;;;;;;;;4971557;28;20469;-73
2022/12/18 00:03:33;;;;;;;50.93;17.90;;;;;;;;;;4975392;28;20555;-73
2022/12/18 00:05:59;;;;;;;49.40;18.20;;;;;;;;;;4939112;28;20819;-73
2022/12/18 00:08:26;;;;;;;42.73;17.10;;;;;;;;;;4991951;28;20507;-73
2022/12/18 00:10:52;;;;;;;43.20;16.17;;;;;;;;;;4973798;28;20989;-73
2022/12/18 00:13:25;;;;;;;50.80;17.70;;;;;;;;;;5011096;28;20444;-73
2022/12/18 00:15:53;;;;;;;48.33;17.23;;;;;;;;;;5008750;28;20476;-73
2022/12/18 00:18:22;;;;;;;45.07;17.33;;;;;;;;;;5010000;28;20518;-73
2022/12/18 00:20:49;;;;;;;44.90;17.13;;;;;;;;;;5011582;28;20508;-73
2022/12/18 00:23:15;;;;;;;50.57;19.20;;;;;;;;;;4993770;28;20456;-73
2022/12/18 00:25:42;;;;;;;45.47;16.67;;;;;;;;;;5011360;28;20899;-73
2022/12/18 00:28:09;;;;;;;52.37;17.30;;;;;;;;;;5009520;28;20440;-73
2022/12/18 00:30:36;;;;;;;43.83;15.83;;;;;;;;;;4971148;28;20451;-73
2022/12/18 00:33:02;;;;;;;41.93;16.07;;;;;;;;;;5009961;28;20463;-73
2022/12/18 00:35:29;;;;;;;49.10;16.77;;;;;;;;;;5013845;28;20493;-73
2022/12/18 00:37:55;;;;;;;43.13;17.43;;;;;;;;;;4993664;28;20533;-73
2022/12/18 00:40:22;;;;;;;45.33;16.30;;;;;;;;;;5012243;28;20533;-73
2022/12/18 00:42:57;;;;;;;48.17;16.57;;;;;;;;;;5030591;28;20467;-73
2022/12/18 00:45:41;;;;;;;46.70;15.97;;;;;;;;;;5006760;28;20424;-73
2022/12/18 00:48:09;;;;;;;54.93;19.67;;;;;;;;;;4993453;28;20502;-73
2022/12/18 00:50:36;;;;;;;49.40;19.93;;;;;;;;;;4971216;28;20489;-73
2022/12/18 00:53:02;;;;;;;47.10;17.90;;;;;;;;;;4970217;28;20519;-73
2022/12/18 00:55:29;;;;;;;42.40;17.03;;;;;;;;;;4986544;28;20505;-73
2022/12/18 00:58:13;;;;;;;52.07;20.03;;;;;;;;;;4971776;28;20461;-73
2022/12/18 01:00:40;;;;;;;53.93;19.07;;;;;;;;;;4989856;28;21428;-73
2022/12/18 01:03:24;;;;;;;44.40;17.57;;;;;;;;;;4976472;28;20413;-73
2022/12/18 01:05:50;;;;;;;57.73;18.57;;;;;;;;;;4973795;28;20543;-73
2022/12/18 01:08:34;;;;;;;47.23;17.20;;;;;;;;;;4991237;28;20426;-73
2022/12/18 01:11:09;;;;;;;48.77;17.23;;;;;;;;;;4990700;28;20528;-72
2022/12/18 01:13:36;;;;;;;49.30;18.23;;;;;;;;;;4973419;28;20444;-73
2022/12/18 01:16:04;;;;;;;48.63;17.80;;;;;;;;;;4990026;28;20929;-74
2022/12/18 01:18:33;;;;;;;52.23;17.67;;;;;;;;;;4957956;28;20790;-73
2022/12/18 01:21:18;;;;;;;44.87;16.87;;;;;;;;;;4990591;28;20444;-73
2022/12/18 01:23:45;;;;;;;46.00;16.17;;;;;;;;;;4973646;28;20774;-72
2022/12/18 01:26:12;;;;;;;46.20;16.63;;;;;;;;;;4989355;28;20454;-73
2022/12/18 01:28:39;;;;;;;54.53;18.57;;;;;;;;;;4990741;28;20566;-73
2022/12/18 01:31:25;;;;;;;41.20;15.83;;;;;;;;;;4973025;28;20449;-73
2022/12/18 01:33:53;;;;;;;50.17;16.83;;;;;;;;;;5026379;28;20431;-73
2022/12/18 01:36:21;;;;;;;48.70;16.90;;;;;;;;;;5012349;28;21347;-73
2022/12/18 01:38:47;;;;;;;54.13;16.13;;;;;;;;;;5029855;28;20841;-72
2022/12/18 01:41:14;;;;;;;51.77;18.17;;;;;;;;;;5012547;28;20465;-72
2022/12/18 01:43:51;;;;;;;46.67;16.00;;;;;;;;;;4976816;28;20457;-73
2022/12/18 01:46:18;;;;;;;55.60;17.70;;;;;;;;;;4990529;28;20835;-73
2022/12/18 01:48:46;;;;;;;47.40;16.23;;;;;;;;;;4988937;28;20448;-73
2022/12/18 01:51:13;;;;;;;50.07;16.40;;;;;;;;;;4973066;28;20785;-72
2022/12/18 01:53:40;;;;;;;41.20;16.60;;;;;;;;;;4973393;28;21405;-73
2022/12/18 01:56:08;;;;;;;48.33;18.60;;;;;;;;;;4957001;28;20450;-73
2022/12/18 01:58:37;;;;;;;58.27;20.30;;;;;;;;;;4956863;28;20460;-72
2022/12/18 02:01:04;;;;;;;66.07;20.33;;;;;;;;;;4956597;28;20580;-73
2022/12/18 02:03:31;;;;;;;70.47;22.90;;;;;;;;;;4973019;28;20424;-73
2022/12/18 02:06:00;;;;;;;75.07;22.00;;;;;;;;;;4990396;28;20445;-73
2022/12/18 02:08:33;;;;;;;73.27;20.37;;;;;;;;;;4988794;28;20455;-73
2022/12/18 02:11:07;;;;;;;62.53;20.47;;;;;;;;;;4969680;28;20504;-73
2022/12/18 02:13:36;;;;;;;67.03;19.23;;;;;;;;;;4981333;28;20495;-73
2022/12/18 02:16:04;;;;;;;57.90;19.17;;;;;;;;;;4957066;28;20439;-73
2022/12/18 02:18:32;;;;;;;53.83;19.20;;;;;;;;;;4988836;28;20443;-73
2022/12/18 02:21:08;;;;;;;59.10;19.40;;;;;;;;;;4972914;28;20882;-73
2022/12/18 02:23:54;;;;;;;61.23;20.33;;;;;;;;;;4989994;28;20531;-73
2022/12/18 02:26:20;;;;;;;59.13;19.93;;;;;;;;;;4971668;28;20464;-73
2022/12/18 02:28:54;;;;;;;67.23;20.93;;;;;;;;;;4975035;28;20502;-73
2022/12/18 02:31:22;;;;;;;64.20;20.67;;;;;;;;;;4960578;28;20466;-73
2022/12/18 02:33:50;;;;;;;76.20;21.17;;;;;;;;;;4994685;28;20667;-72
2022/12/18 02:36:17;;;;;;;64.43;20.37;;;;;;;;;;5015744;28;21292;-72
2022/12/18 02:38:44;;;;;;;66.20;20.90;;;;;;;;;;4999232;28;20957;-72
2022/12/18 02:41:13;;;;;;;79.87;24.13;;;;;;;;;;4993124;28;20475;-72
2022/12/18 02:43:40;;;;;;;76.10;23.87;;;;;;;;;;4979530;28;20442;-73
2022/12/18 02:46:26;;;;;;;81.93;24.07;;;;;;;;;;4979520;28;20436;-73
2022/12/18 02:48:54;;;;;;;78.47;22.10;;;;;;;;;;4995535;28;20461;-73
2022/12/18 02:51:29;;;;;;;71.80;21.50;;;;;;;;;;4979396;28;20458;-73
2022/12/18 02:53:58;;;;;;;73.70;23.37;;;;;;;;;;4980219;28;20455;-73
2022/12/18 02:56:30;;;;;;;80.33;22.27;;;;;;;;;;4978800;28;20450;-73
2022/12/18 02:59:07;;;;;;;72.93;21.37;;;;;;;;;;4959791;28;20448;-73
2022/12/18 03:01:57;;;;;;;64.10;19.20;;;;;;;;;;4960595;28;20448;-73
2022/12/18 03:04:26;;;;;;;51.27;18.47;;;;;;;;;;4992069;28;20502;-73
2022/12/18 03:06:55;;;;;;;56.47;18.20;;;;;;;;;;4960131;28;20792;-73
2022/12/18 03:09:22;;;;;;;67.07;20.10;;;;;;;;;;4959644;28;20447;-73
2022/12/18 03:14:38;;;;;;;48.70;17.03;;;;;;;;;;4974411;28;21074;-73
2022/12/18 03:17:05;;;;;;;50.47;16.67;;;;;;;;;;4993140;28;21289;-73
2022/12/18 03:19:32;;;;;;;27.23;11.50;;;;;;;;;;4975742;28;20465;-73
2022/12/18 03:22:00;;;;;;;31.73;14.13;;;;;;;;;;4975644;28;20463;-73
2022/12/18 03:24:32;;;;;;;47.50;16.93;;;;;;;;;;4960074;28;20998;-73
2022/12/18 03:27:02;;;;;;;46.60;14.73;;;;;;;;;;4975595;28;20440;-73
2022/12/18 03:29:33;;;;;;;48.83;17.13;;;;;;;;;;4967641;28;20490;-73
2022/12/18 03:32:02;;;;;;;42.83;17.37;;;;;;;;;;4978353;28;20798;-73
2022/12/18 03:34:31;;;;;;;61.73;21.60;;;;;;;;;;4998238;28;20496;-73
2022/12/18 03:37:02;;;;;;;63.97;22.27;;;;;;;;;;4998508;28;20503;-73
2022/12/18 03:39:31;;;;;;;67.80;24.17;;;;;;;;;;5013117;28;20973;-73
2022/12/18 03:42:01;;;;;;;58.60;20.47;;;;;;;;;;4998265;28;20456;-73
2022/12/18 03:44:35;;;;;;;57.13;21.57;;;;;;;;;;4999066;28;20464;-73
2022/12/18 03:47:05;;;;;;;55.37;20.53;;;;;;;;;;5009518;28;20479;-73
2022/12/18 03:49:31;;;;;;;73.53;25.07;;;;;;;;;;4994172;28;20450;-73
2022/12/18 03:52:04;;;;;;;58.10;21.83;;;;;;;;;;4994320;28;20877;-73
2022/12/18 03:54:31;;;;;;;65.37;23.50;;;;;;;;;;4994341;28;21046;-73
2022/12/18 03:57:09;;;;;;;58.73;21.20;;;;;;;;;;4979195;28;20474;-73
2022/12/18 03:59:36;;;;;;;49.70;18.30;;;;;;;;;;4978431;28;20498;-72
2022/12/18 04:02:02;;;;;;;56.20;21.90;;;;;;;;;;4994519;28;20575;-72
2022/12/18 04:04:29;;;;;;;64.57;22.27;;;;;;;;;;4977092;28;20449;-72
2022/12/18 04:06:58;;;;;;;52.97;19.10;;;;;;;;;;4959088;28;20483;-73
2022/12/18 04:09:25;;;;;;;53.00;19.43;;;;;;;;;;4958495;28;20456;-73
2022/12/18 04:11:52;;;;;;;58.23;22.80;;;;;;;;;;4974617;28;20447;-73
2022/12/18 04:14:18;;;;;;;57.97;22.13;;;;;;;;;;4991911;28;20519;-73
2022/12/18 04:16:49;;;;;;;51.60;19.60;;;;;;;;;;4974291;28;20498;-73
2022/12/18 04:19:20;;;;;;;53.83;20.57;;;;;;;;;;4974292;28;20458;-73
2022/12/18 04:21:49;;;;;;;50.67;17.83;;;;;;;;;;4987931;28;20492;-73
2022/12/18 04:24:16;;;;;;;51.87;19.03;;;;;;;;;;4992074;28;20454;-73
2022/12/18 04:26:51;;;;;;;41.23;16.13;;;;;;;;;;4983422;28;20469;-73
2022/12/18 04:29:24;;;;;;;42.67;17.00;;;;;;;;;;4991738;28;20455;-73
2022/12/18 04:31:51;;;;;;;40.97;17.10;;;;;;;;;;4993945;28;21730;-73
2022/12/18 04:34:19;;;;;;;41.57;15.93;;;;;;;;;;5005359;28;20465;-73
2022/12/18 04:36:51;;;;;;;32.83;14.67;;;;;;;;;;4961916;28;20470;-73
2022/12/18 04:39:19;;;;;;;38.80;14.60;;;;;;;;;;5007239;28;20497;-73
2022/12/18 04:41:48;;;;;;;37.20;15.07;;;;;;;;;;4960583;28;20494;-73
2022/12/18 04:44:15;;;;;;;41.70;15.13;;;;;;;;;;4992603;28;20459;-73
2022/12/18 04:46:42;;;;;;;33.47;13.10;;;;;;;;;;5010105;28;20558;-73
2022/12/18 04:49:10;;;;;;;35.90;14.23;;;;;;;;;;4992491;28;20447;-73
2022/12/18 04:51:37;;;;;;;30.10;13.07;;;;;;;;;;5013235;28;20480;-73
2022/12/18 04:54:03;;;;;;;44.23;14.67;;;;;;;;;;5009554;28;20474;-73
2022/12/18 04:56:30;;;;;;;32.27;13.70;;;;;;;;;;4992666;28;20545;-73
2022/12/18 04:58:57;;;;;;;39.33;14.37;;;;;;;;;;5008668;28;20490;-73
2022/12/18 05:01:23;;;;;;;32.60;13.27;;;;;;;;;;5009437;28;21010;-73
2022/12/18 05:03:57;;;;;;;31.30;12.90;;;;;;;;;;4991716;28;20454;-72
2022/12/18 05:06:24;;;;;;;36.87;14.37;;;;;;;;;;5009208;28;20451;-73
2022/12/18 05:08:51;;;;;;;29.60;13.23;;;;;;;;;;4999857;28;20509;-73
2022/12/18 05:11:17;;;;;;;31.13;12.67;;;;;;;;;;5009536;28;20983;-73
2022/12/18 05:13:44;;;;;;;32.50;11.80;;;;;;;;;;5009622;28;20818;-73
2022/12/18 05:16:11;;;;;;;29.93;12.87;;;;;;;;;;4972747;28;21034;-73
2022/12/18 05:18:37;;;;;;;33.07;11.97;;;;;;;;;;4988745;28;20455;-73
2022/12/18 05:21:04;;;;;;;29.77;12.50;;;;;;;;;;4991713;28;20870;-73
2022/12/18 05:23:31;;;;;;;26.30;11.53;;;;;;;;;;4992198;28;20447;-73
2022/12/18 05:25:58;;;;;;;30.67;12.70;;;;;;;;;;5008102;28;20450;-72
2022/12/18 05:28:25;;;;;;;29.60;11.07;;;;;;;;;;4990901;28;20482;-72
2022/12/18 05:30:52;;;;;;;31.50;12.10;;;;;;;;;;5009379;28;20493;-73
2022/12/18 05:33:21;;;;;;;43.20;16.03;;;;;;;;;;4989464;28;20548;-74
2022/12/18 05:35:54;;;;;;;29.50;13.23;;;;;;;;;;5003152;28;20542;-70
2022/12/18 05:38:21;;;;;;;29.10;12.57;;;;;;;;;;5008926;28;20561;-71
2022/12/18 05:40:48;;;;;;;29.13;12.43;;;;;;;;;;5005961;28;20913;-71
2022/12/18 05:43:15;;;;;;;26.77;11.27;;;;;;;;;;4985384;28;20455;-71
2022/12/18 05:45:47;;;;;;;27.10;10.90;;;;;;;;;;4983524;28;20446;-70
2022/12/18 05:48:13;;;;;;;33.43;10.83;;;;;;;;;;5013242;28;20950;-74
2022/12/18 05:50:41;;;;;;;28.27;11.07;;;;;;;;;;5004274;28;20477;-72
2022/12/18 05:53:07;;;;;;;24.43;11.27;;;;;;;;;;4988103;28;20539;-71
2022/12/18 05:55:35;;;;;;;33.00;12.00;;;;;;;;;;4972170;28;20542;-71
2022/12/18 05:58:02;;;;;;;30.63;13.07;;;;;;;;;;5008127;28;20455;-68
2022/12/18 06:00:29;;;;;;;29.97;12.57;;;;;;;;;;4986977;28;20482;-73
2022/12/18 06:02:55;;;;;;;27.63;12.20;;;;;;;;;;4984589;28;20444;-73
2022/12/18 06:05:22;;;;;;;26.93;10.47;;;;;;;;;;4966819;28;20970;-73
2022/12/18 06:07:49;;;;;;;24.37;10.17;;;;;;;;;;5011460;28;20979;-74
2022/12/18 06:10:16;;;;;;;27.03;11.53;;;;;;;;;;5005402;28;20446;-70
2022/12/18 06:12:42;;;;;;;27.03;10.50;;;;;;;;;;5006345;28;20481;-75
2022/12/18 06:15:09;;;;;;;28.27;10.63;;;;;;;;;;4986229;28;20454;-72
2022/12/18 06:17:36;;;;;;;32.97;10.97;;;;;;;;;;4991161;28;20943;-70
2022/12/18 06:20:03;;;;;;;24.17;10.23;;;;;;;;;;5008063;28;21007;-68
2022/12/18 06:22:30;;;;;;;27.40;11.70;;;;;;;;;;5005871;28;20509;-68
2022/12/18 06:24:57;;;;;;;27.20;10.27;;;;;;;;;;5005597;28;20470;-69
2022/12/18 06:27:24;;;;;;;29.37;11.60;;;;;;;;;;5002885;28;20467;-69
2022/12/18 06:29:50;;;;;;;28.87;10.77;;;;;;;;;;5005946;28;20450;-76
2022/12/18 06:32:17;;;;;;;24.10;11.10;;;;;;;;;;4986221;28;20483;-77
2022/12/18 06:34:44;;;;;;;22.43;10.57;;;;;;;;;;5005087;28;20784;-75
2022/12/18 06:37:11;;;;;;;22.70;9.63;;;;;;;;;;4980694;28;20460;-75
2022/12/18 06:39:38;;;;;;;22.27;10.23;;;;;;;;;;5012582;28;21028;-72
2022/12/18 06:42:04;;;;;;;22.10;9.50;;;;;;;;;;5006257;28;20467;-72
2022/12/18 06:44:31;;;;;;;24.60;10.93;;;;;;;;;;5006432;28;20439;-72
2022/12/18 06:46:58;;;;;;;21.83;9.30;;;;;;;;;;4989342;28;20779;-75
2022/12/18 06:49:25;;;;;;;20.13;9.93;;;;;;;;;;4996823;28;21166;-71
2022/12/18 06:51:56;;;;;;;23.37;10.43;;;;;;;;;;5008583;28;21012;-70
2022/12/18 06:54:22;;;;;;;27.83;9.20;;;;;;;;;;5009052;28;20434;-74
2022/12/18 06:56:49;;;;;;;20.30;9.17;;;;;;;;;;5009445;28;20430;-70
2022/12/18 06:59:16;;;;;;;28.53;10.93;;;;;;;;;;5008622;28;20953;-73
2022/12/18 07:01:42;;;;;;;23.60;9.57;;;;;;;;;;4987509;28;20460;-72
2022/12/18 07:04:09;;;;;;;20.47;9.03;;;;;;;;;;5005954;28;20483;-75
2022/12/18 07:06:36;;;;;;;22.83;10.23;;;;;;;;;;5003643;28;20550;-75
2022/12/18 07:09:03;;;;;;;19.10;8.73;;;;;;;;;;5009044;28;20515;-73
2022/12/18 07:11:31;;;;;;;25.70;10.73;;;;;;;;;;5009284;28;20437;-74
2022/12/18 07:13:58;;;;;;;25.57;10.60;;;;;;;;;;5005439;28;20458;-73
2022/12/18 07:16:25;;;;;;;23.53;9.93;;;;;;;;;;4975439;28;20559;-70
2022/12/18 07:18:52;;;;;;;20.57;9.07;;;;;;;;;;4975699;28;21014;-69
2022/12/18 07:21:19;;;;;;;22.33;9.80;;;;;;;;;;4991271;28;20455;-68
2022/12/18 07:23:47;;;;;;;20.10;9.23;;;;;;;;;;5012582;28;20500;-72
2022/12/18 07:26:15;;;;;;;22.30;9.93;;;;;;;;;;4977862;28;20492;-75
2022/12/18 07:28:42;;;;;;;20.13;9.53;;;;;;;;;;4995062;28;20463;-69
2022/12/18 07:31:18;;;;;;;36.83;10.93;;;;;;;;;;4993868;28;20483;-74
2022/12/18 07:33:47;;;;;;;25.63;10.17;;;;;;;;;;5029474;28;20492;-73
2022/12/18 07:36:14;;;;;;;29.40;12.23;;;;;;;;;;5032174;28;20450;-74
2022/12/18 07:38:40;;;;;;;22.77;10.40;;;;;;;;;;4992813;28;21075;-77
2022/12/18 07:41:10;;;;;;;25.30;10.17;;;;;;;;;;4987593;28;20518;-69
2022/12/18 07:43:37;;;;;;;29.13;11.43;;;;;;;;;;4992861;28;20455;-67
2022/12/18 07:46:04;;;;;;;27.03;12.80;;;;;;;;;;5011873;28;20885;-73
2022/12/18 07:48:31;;;;;;;28.47;12.27;;;;;;;;;;5012526;28;20501;-70
2022/12/18 07:51:01;;;;;;;30.33;12.20;;;;;;;;;;5012019;28;20466;-69
2022/12/18 07:53:27;;;;;;;30.83;12.83;;;;;;;;;;5009858;28;20484;-70
2022/12/18 07:55:58;;;;;;;36.13;14.20;;;;;;;;;;4996497;28;20468;-72
2022/12/18 07:58:45;;;;;;;27.83;12.70;;;;;;;;;;4990643;28;20483;-78
2022/12/18 08:01:13;;;;;;;40.27;15.67;;;;;;;;;;5011349;28;21001;-74
2022/12/18 08:03:40;;;;;;;32.03;13.37;;;;;;;;;;4993380;28;20458;-74
2022/12/18 08:06:08;;;;;;;29.70;12.03;;;;;;;;;;4993971;28;20430;-67
2022/12/18 08:08:35;;;;;;;28.33;12.83;;;;;;;;;;4994474;28;20814;-76
2022/12/18 08:11:02;;;;;;;33.13;13.20;;;;;;;;;;4977166;28;20469;-74
2022/12/18 08:13:29;;;;;;;33.10;13.20;;;;;;;;;;4992604;28;20439;-73
2022/12/18 08:16:02;;;;;;;30.73;13.13;;;;;;;;;;4994666;28;20471;-76
2022/12/18 08:18:31;;;;;;;30.63;13.10;;;;;;;;;;4977469;28;20938;-74
2022/12/18 08:21:06;;;;;;;30.43;14.20;;;;;;;;;;5011489;28;20462;-70
2022/12/18 08:23:33;;;;;;;31.70;13.80;;;;;;;;;;5000365;28;20443;-70
2022/12/18 08:26:08;;;;;;;33.10;14.90;;;;;;;;;;4984448;28;20460;-71
2022/12/18 08:28:36;;;;;;;29.90;14.63;;;;;;;;;;4972238;28;20458;-72
2022/12/18 08:31:03;;;;;;;30.37;14.33;;;;;;;;;;4968207;28;20451;-72
2022/12/18 08:33:30;;;;;;;28.90;13.23;;;;;;;;;;5015315;28;20569;-72
2022/12/18 08:35:58;;;;;;;41.20;16.33;;;;;;;;;;4978177;28;20505;-71
2022/12/18 08:38:24;;;;;;;32.13;16.20;;;;;;;;;;4974518;28;21036;-71
2022/12/18 08:41:01;;;;;;;33.87;14.27;;;;;;;;;;4976739;28;20435;-75
2022/12/18 08:46:12;;;;;;;24.10;11.77;;;;;;;;;;4989637;28;21187;-71
2022/12/18 08:48:40;;;;;;;25.50;10.93;;;;;;;;;;4994659;28;20848;-74
2022/12/18 08:51:09;;;;;;;26.17;11.87;;;;;;;;;;5011450;28;20446;-70
2022/12/18 08:53:36;;;;;;;27.37;13.47;;;;;;;;;;4994261;28;21079;-70
2022/12/18 08:56:04;;;;;;;33.83;14.27;;;;;;;;;;4994108;28;20838;-70
2022/12/18 08:58:31;;;;;;;30.20;13.37;;;;;;;;;;5011838;28;21039;-70
2022/12/18 09:01:02;;;;;;;29.90;13.57;;;;;;;;;;4994163;28;20441;-70
2022/12/18 09:03:29;;;;;;;33.87;14.90;;;;;;;;;;4998879;28;20444;-70
2022/12/18 09:05:55;;;;;;;31.37;13.03;;;;;;;;;;5010163;28;20480;-70
2022/12/18 09:08:22;;;;;;;27.33;12.70;;;;;;;;;;4992966;28;20525;-70
2022/12/18 09:10:50;;;;;;;26.50;11.20;;;;;;;;;;5010752;28;20495;-70
2022/12/18 09:13:17;;;;;;;30.40;13.50;;;;;;;;;;5008320;28;20457;-70
2022/12/18 09:15:45;;;;;;;28.97;13.77;;;;;;;;;;4990871;28;20446;-70
2022/12/18 09:18:12;;;;;;;26.23;12.77;;;;;;;;;;4977310;28;20435;-70
2022/12/18 09:20:39;;;;;;;24.20;12.43;;;;;;;;;;4989982;28;20451;-70
2022/12/18 09:23:06;;;;;;;26.70;12.53;;;;;;;;;;5005119;28;20575;-70
2022/12/18 09:25:37;;;;;;;28.57;13.77;;;;;;;;;;4987074;28;20484;-69
2022/12/18 09:28:05;;;;;;;27.37;12.63;;;;;;;;;;4998775;28;20451;-69
2022/12/18 09:30:35;;;;;;;42.17;18.13;;;;;;;;;;4997208;28;20508;-69
2022/12/18 09:33:02;;;;;;;23.80;12.63;;;;;;;;;;4974036;28;20459;-70
2022/12/18 09:35:31;;;;;;;28.63;14.20;;;;;;;;;;4994121;28;20566;-69
2022/12/18 09:37:59;;;;;;;23.83;11.73;;;;;;;;;;5005922;28;20455;-70
2022/12/18 09:40:26;;;;;;;21.77;10.90;;;;;;;;;;4977086;28;20435;-70
2022/12/18 09:42:57;;;;;;;27.20;9.77;;;;;;;;;;4987793;28;20466;-69
2022/12/18 09:45:24;;;;;;;23.23;11.13;;;;;;;;;;4987702;28;21028;-68
2022/12/18 09:47:51;;;;;;;26.37;13.10;;;;;;;;;;5006304;28;20458;-70
2022/12/18 09:50:17;;;;;;;19.10;9.20;;;;;;;;;;4992119;28;20525;-70
2022/12/18 09:52:45;;;;;;;23.60;11.30;;;;;;;;;;4991188;28;20502;-72
2022/12/18 09:55:18;;;;;;;27.87;12.10;;;;;;;;;;5025681;28;20465;-72
2022/12/18 09:57:47;;;;;;;27.27;12.17;;;;;;;;;;4997466;28;20438;-72
2022/12/18 10:00:14;;;;;;;24.57;11.50;;;;;;;;;;4983679;28;20473;-72
2022/12/18 10:02:43;;;;;;;27.73;9.77;;;;;;;;;;5014310;28;20579;-72
2022/12/18 10:05:16;;;;;;;18.70;9.43;;;;;;;;;;4991972;28;21173;-72
2022/12/18 10:07:47;;;;;;;29.10;12.67;;;;;;;;;;4998200;28;20452;-72
2022/12/18 10:10:32;;;;;;;27.60;10.53;;;;;;;;;;4964106;28;20468;-72
2022/12/18 10:12:58;;;;;;;27.80;13.67;;;;;;;;;;5004989;28;20454;-71
2022/12/18 10:15:30;;;;;;;28.83;13.33;;;;;;;;;;5006777;28;20455;-76
2022/12/18 10:17:57;;;;;;;29.10;12.80;;;;;;;;;;4999888;28;20486;-69
2022/12/18 10:20:29;;;;;;;34.83;14.70;;;;;;;;;;5005941;28;20838;-74
2022/12/18 10:23:14;;;;;;;26.67;13.37;;;;;;;;;;4981930;28;20508;-69
2022/12/18 10:25:41;;;;;;;26.13;11.97;;;;;;;;;;4980550;28;20451;-67
2022/12/18 10:28:12;;;;;;;26.53;10.20;;;;;;;;;;5005603;28;20521;-67
2022/12/18 10:30:39;;;;;;;29.03;12.97;;;;;;;;;;5018315;28;20447;-68
2022/12/18 10:33:09;;;;;;;27.30;13.67;;;;;;;;;;4988865;28;20446;-71
2022/12/18 10:35:36;;;;;;;32.73;13.83;;;;;;;;;;4989126;28;20466;-68
2022/12/18 10:38:22;;;;;;;32.77;13.93;;;;;;;;;;5004212;28;20482;-77
2022/12/18 10:40:51;;;;;;;23.83;10.73;;;;;;;;;;5007303;28;20473;-78
2022/12/18 10:43:28;;;;;;;31.73;13.43;;;;;;;;;;4988115;28;20521;-75
2022/12/18 10:46:05;;;;;;;34.20;15.80;;;;;;;;;;4988413;28;20438;-73
2022/12/18 10:48:33;;;;;;;30.27;12.20;;;;;;;;;;5012251;28;20460;-72
2022/12/18 10:50:59;;;;;;;31.57;15.23;;;;;;;;;;4982059;28;21037;-74
2022/12/18 10:53:38;;;;;;;29.50;12.90;;;;;;;;;;4987986;28;21242;-69
2022/12/18 10:56:06;;;;;;;36.20;14.30;;;;;;;;;;4972695;28;20447;-69
2022/12/18 10:58:34;;;;;;;34.47;14.67;;;;;;;;;;4992572;28;20451;-68
2022/12/18 11:01:04;;;;;;;28.30;13.77;;;;;;;;;;5013524;28;20427;-69
2022/12/18 11:03:38;;;;;;;23.47;10.10;;;;;;;;;;5026625;28;20509;-68
2022/12/18 11:06:06;;;;;;;25.93;12.30;;;;;;;;;;5021885;28;20607;-68
2022/12/18 11:08:57;;;;;;;21.67;7.97;;;;;;;;;;4994323;28;20435;-68
2022/12/18 11:11:24;;;;;;;25.73;11.83;;;;;;;;;;4993314;28;20482;-69
2022/12/18 11:14:14;;;;;;;25.00;11.80;;;;;;;;;;5002388;28;20438;-68
2022/12/18 11:16:47;;;;;;;29.53;13.30;;;;;;;;;;4990242;28;20466;-69
2022/12/18 11:19:35;;;;;;;25.80;11.80;;;;;;;;;;4996903;28;20525;-69
2022/12/18 11:22:03;;;;;;;23.37;10.30;;;;;;;;;;5004232;28;20473;-69
2022/12/18 11:25:03;;;;;;;23.50;10.00;;;;;;;;;;4998577;28;20449;-69
2022/12/18 11:28:00;;;;;;;22.33;9.77;;;;;;;;;;4999455;28;20469;-69
2022/12/18 11:30:31;;;;;;;19.80;9.07;;;;;;;;;;5024850;28;20479;-69
2022/12/18 11:33:17;;;;;;;20.17;10.23;;;;;;;;;;5018503;28;20945;-70
2022/12/18 11:35:50;;;;;;;21.70;11.00;;;;;;;;;;4990809;28;20567;-69
2022/12/18 11:38:19;;;;;;;20.23;8.73;;;;;;;;;;5023051;28;20465;-69
2022/12/18 11:40:48;;;;;;;17.07;8.87;;;;;;;;;;4976834;28;20449;-69
2022/12/18 11:43:21;;;;;;;15.30;6.63;;;;;;;;;;5010022;28;20525;-69
2022/12/18 11:45:56;;;;;;;20.70;9.23;;;;;;;;;;4989181;28;20455;-69
2022/12/18 11:48:25;;;;;;;16.87;8.37;;;;;;;;;;4993262;28;20533;-70
2022/12/18 11:50:52;;;;;;;17.63;7.80;;;;;;;;;;5010132;28;20428;-69
2022/12/18 11:53:19;;;;;;;14.07;7.17;;;;;;;;;;4977733;28;20494;-70
2022/12/18 11:55:48;;;;;;;14.77;7.43;;;;;;;;;;4982748;28;20434;-69
2022/12/18 11:58:15;;;;;;;16.07;6.40;;;;;;;;;;5011031;28;20427;-69
2022/12/18 12:00:54;;;;;;;15.40;6.70;;;;;;;;;;5009755;28;20446;-69
2022/12/18 12:03:37;;;;;;;11.30;5.17;;;;;;;;;;4998148;28;20494;-69
2022/12/18 12:06:14;;;;;;;13.60;6.23;;;;;;;;;;4993684;28;21025;-68
2022/12/18 12:09:00;;;;;;;15.23;6.50;;;;;;;;;;5011158;28;20453;-69
2022/12/18 12:11:26;;;;;;;12.27;4.30;;;;;;;;;;5008751;28;20517;-69
2022/12/18 12:13:53;;;;;;;10.90;5.67;;;;;;;;;;5011450;28;20497;-69
2022/12/18 12:16:20;;;;;;;9.07;4.27;;;;;;;;;;5007782;28;20469;-69
2022/12/18 12:18:52;;;;;;;6.83;3.50;;;;;;;;;;5010982;28;20443;-68
2022/12/18 12:21:38;;;;;;;9.17;4.40;;;;;;;;;;5003435;28;20522;-69
2022/12/18 12:24:23;;;;;;;11.47;4.97;;;;;;;;;;5012398;28;20438;-69
2022/12/18 12:26:59;;;;;;;9.30;4.27;;;;;;;;;;5011618;28;20450;-68
2022/12/18 12:29:36;;;;;;;9.13;3.90;;;;;;;;;;4992360;28;20461;-69
2022/12/18 12:32:06;;;;;;;13.33;5.10;;;;;;;;;;4979930;28;20452;-69
2022/12/18 12:34:52;;;;;;;10.53;5.20;;;;;;;;;;5007111;28;21200;-69
2022/12/18 12:37:29;;;;;;;15.93;7.20;;;;;;;;;;5009306;28;22773;-69
2022/12/18 12:39:56;;;;;;;13.83;5.60;;;;;;;;;;4981644;28;20454;-69
2022/12/18 12:43:12;;;;;;;15.60;6.93;;;;;;;;;;4991684;28;20498;-69
2022/12/18 12:45:39;;;;;;;11.73;5.47;;;;;;;;;;4985154;28;20446;-68
2022/12/18 12:48:13;;;;;;;7.50;4.50;;;;;;;;;;4991173;28;20563;-68
2022/12/18 12:50:41;;;;;;;15.63;7.33;;;;;;;;;;4995266;28;20521;-68
2022/12/18 12:53:09;;;;;;;14.37;4.93;;;;;;;;;;5007659;28;21006;-72
2022/12/18 12:55:37;;;;;;;17.77;6.57;;;;;;;;;;5019132;28;20555;-71
2022/12/18 12:58:18;;;;;;;15.40;6.67;;;;;;;;;;4989160;28;20494;-70
2022/12/18 13:01:00;;;;;;;19.60;8.03;;;;;;;;;;4984095;28;20455;-70
2022/12/18 13:03:36;;;;;;;11.53;6.07;;;;;;;;;;4985623;28;20507;-70
2022/12/18 13:06:04;;;;;;;22.33;9.07;;;;;;;;;;5007077;28;20454;-71
2022/12/18 13:08:33;;;;;;;17.40;7.30;;;;;;;;;;4969461;28;20458;-69
2022/12/18 13:14:10;;;;;;;15.07;5.83;;;;;;;;;;4966364;28;20445;-73
2022/12/18 13:16:39;;;;;;;13.63;4.50;;;;;;;;;;4970995;28;20594;-73
2022/12/18 13:19:19;;;;;;;11.83;5.30;;;;;;;;;;4989762;28;20448;-73
2022/12/18 13:21:52;;;;;;;21.00;8.23;;;;;;;;;;4976038;28;20522;-71
2022/12/18 13:24:25;;;;;;;12.80;4.97;;;;;;;;;;5010907;28;20442;-70
2022/12/18 13:26:53;;;;;;;13.33;6.07;;;;;;;;;;4983559;28;20444;-70
2022/12/18 13:29:55;;;;;;;9.73;4.63;;;;;;;;;;4989342;28;20456;-71
2022/12/18 13:32:23;;;;;;;8.70;4.03;;;;;;;;;;4943525;28;20460;-71
2022/12/18 13:35:26;;;;;;;8.53;4.40;;;;;;;;;;5003945;28;20834;-71
2022/12/18 13:37:53;;;;;;;11.60;5.10;;;;;;;;;;4947749;28;20491;-71
2022/12/18 13:40:38;;;;;;;11.30;5.00;;;;;;;;;;4963028;28;20959;-73
2022/12/18 13:43:17;;;;;;;10.27;4.60;;;;;;;;;;4996354;28;21138;-71
2022/12/18 13:45:49;;;;;;;15.50;7.07;;;;;;;;;;5004639;28;20528;-69
2022/12/18 13:48:25;;;;;;;18.37;6.67;;;;;;;;;;4986024;28;20498;-69
2022/12/18 13:51:03;;;;;;;7.43;3.30;;;;;;;;;;4987926;28;20439;-68
2022/12/18 13:53:32;;;;;;;16.00;7.07;;;;;;;;;;4947052;28;21525;-71
2022/12/18 13:55:59;;;;;;;15.97;5.70;;;;;;;;;;5020210;28;20447;-74
2022/12/18 13:58:25;;;;;;;17.73;7.03;;;;;;;;;;4988297;28;20445;-71
2022/12/18 14:01:22;;;;;;;17.10;7.13;;;;;;;;;;4986421;28;20423;-73
2022/12/18 14:03:50;;;;;;;10.40;4.70;;;;;;;;;;4987105;28;20486;-74
2022/12/18 14:06:18;;;;;;;15.23;6.30;;;;;;;;;;4969661;28;20517;-72
2022/12/18 14:08:45;;;;;;;11.97;5.70;;;;;;;;;;4985184;28;20493;-71
2022/12/18 14:11:18;;;;;;;12.00;5.47;;;;;;;;;;4987406;28;20438;-70
2022/12/18 14:14:04;;;;;;;9.77;5.27;;;;;;;;;;4989607;28;20435;-68
2022/12/18 14:16:31;;;;;;;11.77;4.73;;;;;;;;;;5006595;28;20438;-74
2022/12/18 14:18:59;;;;;;;8.77;4.50;;;;;;;;;;4987998;28;20942;-70
2022/12/18 14:21:41;;;;;;;13.33;6.80;;;;;;;;;;4990107;28;20505;-71
2022/12/18 14:24:15;;;;;;;9.33;3.63;;;;;;;;;;4970328;28;20946;-69
2022/12/18 14:26:45;;;;;;;12.93;5.57;;;;;;;;;;4986539;28;20519;-68
2022/12/18 14:29:23;;;;;;;11.53;5.10;;;;;;;;;;4971301;28;20516;-71
2022/12/18 14:32:11;;;;;;;18.70;8.70;;;;;;;;;;5002232;28;20421;-75
2022/12/18 14:34:50;;;;;;;24.30;10.13;;;;;;;;;;5019821;28;20451;-74
2022/12/18 14:37:17;;;;;;;25.33;11.03;;;;;;;;;;4994507;28;20516;-71
2022/12/18 14:39:53;;;;;;;27.80;12.30;;;;;;;;;;4987058;28;20451;-71
2022/12/18 14:42:20;;;;;;;27.00;11.33;;;;;;;;;;4982516;28;20975;-75
2022/12/18 14:44:47;;;;;;;30.03;11.17;;;;;;;;;;4984688;28;20450;-71
2022/12/18 14:47:34;;;;;;;32.93;12.63;;;;;;;;;;5002435;28;20463;-68
2022/12/18 14:50:01;;;;;;;39.23;16.07;;;;;;;;;;5012005;28;20466;-74